sensor_id;sensor_type;location;lat;lon;timestamp;pressure;altitude;pressure_sealevel;temperature
15144;BMP180;7672;50.834;6.286;2023-06-14T00:01:45;99492.91;;;20.89
15144;BMP180;7672;50.834;6.286;2023-06-14T00:04:13;99488.75;;;20.87
15144;BMP180;7672;50.834;6.286;2023-06-14T00:06:40;99497.28;;;20.87
15144;BMP180;7672;50.834;6.286;2023-06-14T00:09:08;99493.94;;;20.85
15144;BMP180;7672;50.834;6.286;2023-06-14T00:11:35;99492.34;;;20.83
15144;BMP180;7672;50.834;6.286;2023-06-14T00:14:02;99491.69;;;20.78
15144;BMP180;7672;50.834;6.286;2023-06-14T00:16:30;99494.44;;;20.72
15144;BMP180;7672;50.834;6.286;2023-06-14T00:18:59;99493.84;;;20.65
15144;BMP180;7672;50.834;6.286;2023-06-14T00:21:26;99497.66;;;20.57
15144;BMP180;7672;50.834;6.286;2023-06-14T00:23:57;99499.66;;;20.49
15144;BMP180;7672;50.834;6.286;2023-06-14T00:26:25;99494.88;;;20.40
15144;BMP180;7672;50.834;6.286;2023-06-14T00:28:54;99497.72;;;20.33
15144;BMP180;7672;50.834;6.286;2023-06-14T00:31:21;99497.31;;;20.22
15144;BMP180;7672;50.834;6.286;2023-06-14T00:33:48;99497.59;;;20.14
15144;BMP180;7672;50.834;6.286;2023-06-14T00:36:15;99500.44;;;20.07
15144;BMP180;7672;50.834;6.286;2023-06-14T00:38:42;99496.31;;;20.03
15144;BMP180;7672;50.834;6.286;2023-06-14T00:41:09;99496.53;;;19.97
15144;BMP180;7672;50.834;6.286;2023-06-14T00:43:36;99505.25;;;19.93
15144;BMP180;7672;50.834;6.286;2023-06-14T00:46:04;99500.34;;;19.85
15144;BMP180;7672;50.834;6.286;2023-06-14T00:48:32;99501.44;;;19.79
15144;BMP180;7672;50.834;6.286;2023-06-14T00:51:00;99499.19;;;19.71
15144;BMP180;7672;50.834;6.286;2023-06-14T00:53:32;99493.44;;;19.65
15144;BMP180;7672;50.834;6.286;2023-06-14T00:56:02;99497.94;;;19.58
15144;BMP180;7672;50.834;6.286;2023-06-14T00:58:31;99498.94;;;19.54
15144;BMP180;7672;50.834;6.286;2023-06-14T01:00:59;99498.25;;;19.49
15144;BMP180;7672;50.834;6.286;2023-06-14T01:03:45;99505.38;;;19.41
15144;BMP180;7672;50.834;6.286;2023-06-14T01:06:58;99496.25;;;19.33
15144;BMP180;7672;50.834;6.286;2023-06-14T01:13:01;99508.81;;;19.16
15144;BMP180;7672;50.834;6.286;2023-06-14T01:15:31;99500.56;;;19.08
15144;BMP180;7672;50.834;6.286;2023-06-14T01:17:59;99507.47;;;19.05
15144;BMP180;7672;50.834;6.286;2023-06-14T01:20:33;99504.22;;;19.00
15144;BMP180;7672;50.834;6.286;2023-06-14T01:23:03;99507.75;;;18.96
15144;BMP180;7672;50.834;6.286;2023-06-14T01:25:30;99506.13;;;18.93
15144;BMP180;7672;50.834;6.286;2023-06-14T01:28:03;99500.28;;;18.90
15144;BMP180;7672;50.834;6.286;2023-06-14T01:30:31;99503.72;;;18.89
15144;BMP180;7672;50.834;6.286;2023-06-14T01:33:00;99499.50;;;18.88
15144;BMP180;7672;50.834;6.286;2023-06-14T01:35:30;99502.06;;;18.88
15144;BMP180;7672;50.834;6.286;2023-06-14T01:37:58;99511.38;;;18.89
15144;BMP180;7672;50.834;6.286;2023-06-14T01:40:30;99508.94;;;18.86
15144;BMP180;7672;50.834;6.286;2023-06-14T01:42:59;99515.69;;;18.88
15144;BMP180;7672;50.834;6.286;2023-06-14T01:45:27;99514.06;;;18.86
15144;BMP180;7672;50.834;6.286;2023-06-14T01:47:57;99517.56;;;18.83
15144;BMP180;7672;50.834;6.286;2023-06-14T01:50:29;99513.41;;;18.79
15144;BMP180;7672;50.834;6.286;2023-06-14T01:52:57;99510.16;;;18.74
15144;BMP180;7672;50.834;6.286;2023-06-14T01:55:25;99509.38;;;18.72
15144;BMP180;7672;50.834;6.286;2023-06-14T01:57:53;99510.28;;;18.71
15144;BMP180;7672;50.834;6.286;2023-06-14T02:00:20;99514.75;;;18.65
15144;BMP180;7672;50.834;6.286;2023-06-14T02:02:48;99528.50;;;18.61
15144;BMP180;7672;50.834;6.286;2023-06-14T02:05:16;99522.72;;;18.55
15144;BMP180;7672;50.834;6.286;2023-06-14T02:07:45;99524.69;;;18.47
15144;BMP180;7672;50.834;6.286;2023-06-14T02:10:16;99503.06;;;18.29
15144;BMP180;7672;50.834;6.286;2023-06-14T02:12:44;99525.84;;;18.37
15144;BMP180;7672;50.834;6.286;2023-06-14T02:15:11;99518.31;;;18.32
15144;BMP180;7672;50.834;6.286;2023-06-14T02:17:44;99513.28;;;18.29
15144;BMP180;7672;50.834;6.286;2023-06-14T02:20:12;99515.88;;;18.28
15144;BMP180;7672;50.834;6.286;2023-06-14T02:22:39;99520.97;;;18.29
15144;BMP180;7672;50.834;6.286;2023-06-14T02:25:08;99524.31;;;18.31
15144;BMP180;7672;50.834;6.286;2023-06-14T02:27:35;99523.50;;;18.31
15144;BMP180;7672;50.834;6.286;2023-06-14T02:30:04;99526.00;;;18.32
15144;BMP180;7672;50.834;6.286;2023-06-14T02:32:32;99525.16;;;18.32
15144;BMP180;7672;50.834;6.286;2023-06-14T02:35:04;99523.50;;;18.31
15144;BMP180;7672;50.834;6.286;2023-06-14T02:37:32;99526.94;;;18.30
15144;BMP180;7672;50.834;6.286;2023-06-14T02:39:59;99523.44;;;18.32
15144;BMP180;7672;50.834;6.286;2023-06-14T02:42:26;99528.50;;;18.34
15144;BMP180;7672;50.834;6.286;2023-06-14T02:44:53;99524.16;;;18.36
15144;BMP180;7672;50.834;6.286;2023-06-14T02:47:20;99524.94;;;18.39
15144;BMP180;7672;50.834;6.286;2023-06-14T02:49:48;99520.66;;;18.40
15144;BMP180;7672;50.834;6.286;2023-06-14T02:52:15;99523.94;;;18.43
15144;BMP180;7672;50.834;6.286;2023-06-14T02:54:42;99526.56;;;18.42
15144;BMP180;7672;50.834;6.286;2023-06-14T02:57:10;99534.22;;;18.42
15144;BMP180;7672;50.834;6.286;2023-06-14T02:59:39;99533.47;;;18.40
15144;BMP180;7672;50.834;6.286;2023-06-14T03:02:07;99534.34;;;18.39
15144;BMP180;7672;50.834;6.286;2023-06-14T03:04:35;99538.69;;;18.35
15144;BMP180;7672;50.834;6.286;2023-06-14T03:07:09;99544.84;;;18.30
15144;BMP180;7672;50.834;6.286;2023-06-14T03:09:39;99545.88;;;18.23
15144;BMP180;7672;50.834;6.286;2023-06-14T03:12:10;99538.38;;;18.17
15144;BMP180;7672;50.834;6.286;2023-06-14T03:14:38;99542.78;;;18.12
15144;BMP180;7672;50.834;6.286;2023-06-14T03:17:07;99543.00;;;18.04
15144;BMP180;7672;50.834;6.286;2023-06-14T03:19:38;99545.72;;;17.98
15144;BMP180;7672;50.834;6.286;2023-06-14T03:22:05;99545.88;;;17.93
15144;BMP180;7672;50.834;6.286;2023-06-14T03:24:35;99540.94;;;17.87
15144;BMP180;7672;50.834;6.286;2023-06-14T03:27:09;99540.25;;;17.82
15144;BMP180;7672;50.834;6.286;2023-06-14T03:29:40;99538.72;;;17.75
15144;BMP180;7672;50.834;6.286;2023-06-14T03:32:08;99549.06;;;17.70
15144;BMP180;7672;50.834;6.286;2023-06-14T03:34:38;99545.81;;;17.65
15144;BMP180;7672;50.834;6.286;2023-06-14T03:37:08;99557.81;;;17.62
15144;BMP180;7672;50.834;6.286;2023-06-14T03:39:35;99557.91;;;17.57
15144;BMP180;7672;50.834;6.286;2023-06-14T03:42:03;99556.28;;;17.55
15144;BMP180;7672;50.834;6.286;2023-06-14T03:44:32;99560.63;;;17.53
15144;BMP180;7672;50.834;6.286;2023-06-14T03:47:00;99558.88;;;17.53
15144;BMP180;7672;50.834;6.286;2023-06-14T03:49:28;99562.25;;;17.55
15144;BMP180;7672;50.834;6.286;2023-06-14T03:51:55;99565.56;;;17.59
15144;BMP180;7672;50.834;6.286;2023-06-14T03:54:23;99565.47;;;17.62
15144;BMP180;7672;50.834;6.286;2023-06-14T03:56:54;99568.72;;;17.68
15144;BMP180;7672;50.834;6.286;2023-06-14T03:59:23;99565.03;;;17.78
15144;BMP180;7672;50.834;6.286;2023-06-14T04:01:51;99562.28;;;17.86
15144;BMP180;7672;50.834;6.286;2023-06-14T04:04:18;99572.22;;;17.96
15144;BMP180;7672;50.834;6.286;2023-06-14T04:06:45;99571.13;;;18.04
15144;BMP180;7672;50.834;6.286;2023-06-14T04:09:15;99578.44;;;18.16
15144;BMP180;7672;50.834;6.286;2023-06-14T04:11:42;99576.47;;;18.27
15144;BMP180;7672;50.834;6.286;2023-06-14T04:14:09;99584.59;;;18.41
15144;BMP180;7672;50.834;6.286;2023-06-14T04:16:37;99582.47;;;18.55
15144;BMP180;7672;50.834;6.286;2023-06-14T04:19:05;99583.59;;;18.72
15144;BMP180;7672;50.834;6.286;2023-06-14T04:21:32;99576.44;;;18.83
15144;BMP180;7672;50.834;6.286;2023-06-14T04:24:04;99584.44;;;19.00
15144;BMP180;7672;50.834;6.286;2023-06-14T04:26:32;99586.59;;;19.14
15144;BMP180;7672;50.834;6.286;2023-06-14T04:29:00;99587.00;;;19.27
15144;BMP180;7672;50.834;6.286;2023-06-14T04:31:31;99579.69;;;19.41
15144;BMP180;7672;50.834;6.286;2023-06-14T04:34:06;99583.44;;;19.57
15144;BMP180;7672;50.834;6.286;2023-06-14T04:36:35;99581.19;;;19.73
15144;BMP180;7672;50.834;6.286;2023-06-14T04:39:04;99573.72;;;19.89
15144;BMP180;7672;50.834;6.286;2023-06-14T04:41:31;99579.03;;;20.09
15144;BMP180;7672;50.834;6.286;2023-06-14T04:44:00;99574.91;;;20.28
15144;BMP180;7672;50.834;6.286;2023-06-14T04:46:36;99580.97;;;20.48
15144;BMP180;7672;50.834;6.286;2023-06-14T04:49:20;99584.53;;;20.67
15144;BMP180;7672;50.834;6.286;2023-06-14T04:51:53;99594.13;;;20.85
15144;BMP180;7672;50.834;6.286;2023-06-14T04:54:33;99596.88;;;21.02
15144;BMP180;7672;50.834;6.286;2023-06-14T04:57:06;99593.63;;;21.18
15144;BMP180;7672;50.834;6.286;2023-06-14T04:59:33;99599.84;;;21.34
15144;BMP180;7672;50.834;6.286;2023-06-14T05:02:02;99591.34;;;21.54
15144;BMP180;7672;50.834;6.286;2023-06-14T05:04:29;99600.75;;;21.75
15144;BMP180;7672;50.834;6.286;2023-06-14T05:06:58;99589.50;;;21.95
15144;BMP180;7672;50.834;6.286;2023-06-14T05:09:25;99583.50;;;22.15
15144;BMP180;7672;50.834;6.286;2023-06-14T05:11:52;99592.09;;;22.34
15144;BMP180;7672;50.834;6.286;2023-06-14T05:14:20;99594.78;;;22.50
15144;BMP180;7672;50.834;6.286;2023-06-14T05:16:50;99600.88;;;22.66
15144;BMP180;7672;50.834;6.286;2023-06-14T05:19:17;99598.56;;;22.79
15144;BMP180;7672;50.834;6.286;2023-06-14T05:21:45;99609.06;;;22.93
15144;BMP180;7672;50.834;6.286;2023-06-14T05:24:13;99609.44;;;23.03
15144;BMP180;7672;50.834;6.286;2023-06-14T05:26:40;99606.50;;;23.11
15144;BMP180;7672;50.834;6.286;2023-06-14T05:29:08;99612.94;;;23.19
15144;BMP180;7672;50.834;6.286;2023-06-14T05:31:35;99610.09;;;23.25
15144;BMP180;7672;50.834;6.286;2023-06-14T05:34:02;99606.38;;;23.31
15144;BMP180;7672;50.834;6.286;2023-06-14T05:36:29;99610.41;;;23.36
15144;BMP180;7672;50.834;6.286;2023-06-14T05:38:58;99604.94;;;23.42
15144;BMP180;7672;50.834;6.286;2023-06-14T05:41:27;99608.91;;;23.49
15144;BMP180;7672;50.834;6.286;2023-06-14T05:43:56;99615.41;;;23.56
15144;BMP180;7672;50.834;6.286;2023-06-14T05:46:23;99624.63;;;23.62
15144;BMP180;7672;50.834;6.286;2023-06-14T05:48:55;99621.78;;;23.66
15144;BMP180;7672;50.834;6.286;2023-06-14T05:51:23;99615.63;;;23.68
15144;BMP180;7672;50.834;6.286;2023-06-14T05:53:53;99623.94;;;23.75
15144;BMP180;7672;50.834;6.286;2023-06-14T05:56:20;99636.47;;;23.82
15144;BMP180;7672;50.834;6.286;2023-06-14T05:58:47;99637.00;;;23.89
15144;BMP180;7672;50.834;6.286;2023-06-14T06:01:15;99639.28;;;23.95
15144;BMP180;7672;50.834;6.286;2023-06-14T06:03:42;99635.53;;;24.00
15144;BMP180;7672;50.834;6.286;2023-06-14T06:06:14;99638.72;;;24.05
15144;BMP180;7672;50.834;6.286;2023-06-14T06:08:41;99650.47;;;24.11
15144;BMP180;7672;50.834;6.286;2023-06-14T06:11:08;99646.69;;;24.18
15144;BMP180;7672;50.834;6.286;2023-06-14T06:13:35;99647.19;;;24.24
15144;BMP180;7672;50.834;6.286;2023-06-14T06:16:03;99647.78;;;24.29
15144;BMP180;7672;50.834;6.286;2023-06-14T06:18:30;99655.22;;;24.35
15144;BMP180;7672;50.834;6.286;2023-06-14T06:20:57;99653.03;;;24.44
15144;BMP180;7672;50.834;6.286;2023-06-14T06:23:24;99650.63;;;24.57
15144;BMP180;7672;50.834;6.286;2023-06-14T06:25:52;99657.97;;;24.64
15144;BMP180;7672;50.834;6.286;2023-06-14T06:28:19;99665.25;;;24.73
15144;BMP180;7672;50.834;6.286;2023-06-14T06:30:47;99660.41;;;24.83
15144;BMP180;7672;50.834;6.286;2023-06-14T06:33:14;99658.91;;;24.94
15144;BMP180;7672;50.834;6.286;2023-06-14T06:35:42;99652.25;;;25.05
15144;BMP180;7672;50.834;6.286;2023-06-14T06:38:09;99668.03;;;25.16
15144;BMP180;7672;50.834;6.286;2023-06-14T06:40:37;99659.84;;;25.24
15144;BMP180;7672;50.834;6.286;2023-06-14T06:43:04;99667.09;;;25.33
15144;BMP180;7672;50.834;6.286;2023-06-14T06:45:42;99674.25;;;25.43
15144;BMP180;7672;50.834;6.286;2023-06-14T06:48:09;99674.75;;;25.50
15144;BMP180;7672;50.834;6.286;2023-06-14T06:50:37;99675.88;;;25.59
15144;BMP180;7672;50.834;6.286;2023-06-14T06:53:04;99676.38;;;25.66
15144;BMP180;7672;50.834;6.286;2023-06-14T06:55:32;99687.38;;;25.69
15144;BMP180;7672;50.834;6.286;2023-06-14T06:57:59;99679.41;;;25.74
15144;BMP180;7672;50.834;6.286;2023-06-14T07:00:27;99679.88;;;25.80
15144;BMP180;7672;50.834;6.286;2023-06-14T07:02:54;99686.38;;;25.87
15144;BMP180;7672;50.834;6.286;2023-06-14T07:05:23;99689.72;;;25.89
15144;BMP180;7672;50.834;6.286;2023-06-14T07:07:50;99690.88;;;25.84
15144;BMP180;7672;50.834;6.286;2023-06-14T07:10:17;99697.25;;;25.78
15144;BMP180;7672;50.834;6.286;2023-06-14T07:12:45;99691.41;;;25.75
15144;BMP180;7672;50.834;6.286;2023-06-14T07:15:12;99696.59;;;25.75
15144;BMP180;7672;50.834;6.286;2023-06-14T07:17:40;99702.44;;;25.78
15144;BMP180;7672;50.834;6.286;2023-06-14T07:20:09;99693.56;;;25.82
15144;BMP180;7672;50.834;6.286;2023-06-14T07:22:40;99693.03;;;25.91
15144;BMP180;7672;50.834;6.286;2023-06-14T07:25:12;99699.19;;;26.04
15144;BMP180;7672;50.834;6.286;2023-06-14T07:27:45;99701.88;;;26.17
15144;BMP180;7672;50.834;6.286;2023-06-14T07:30:13;99704.56;;;26.29
15144;BMP180;7672;50.834;6.286;2023-06-14T07:32:40;99696.75;;;26.44
15144;BMP180;7672;50.834;6.286;2023-06-14T07:35:08;99693.78;;;26.64
15144;BMP180;7672;50.834;6.286;2023-06-14T07:37:35;99698.41;;;26.87
15144;BMP180;7672;50.834;6.286;2023-06-14T07:40:03;99708.88;;;27.13
15144;BMP180;7672;50.834;6.286;2023-06-14T07:42:34;99703.50;;;27.43
15144;BMP180;7672;50.834;6.286;2023-06-14T07:45:06;99700.91;;;27.69
15144;BMP180;7672;50.834;6.286;2023-06-14T07:47:34;99701.50;;;27.99
15144;BMP180;7672;50.834;6.286;2023-06-14T07:50:02;99697.69;;;28.29
15144;BMP180;7672;50.834;6.286;2023-06-14T07:52:29;99699.56;;;28.64
15144;BMP180;7672;50.834;6.286;2023-06-14T07:54:57;99706.81;;;29.09
15144;BMP180;7672;50.834;6.286;2023-06-14T07:57:25;99702.47;;;29.56
15144;BMP180;7672;50.834;6.286;2023-06-14T07:59:52;99706.81;;;30.02
15144;BMP180;7672;50.834;6.286;2023-06-14T08:02:19;99711.66;;;30.41
15144;BMP180;7672;50.834;6.286;2023-06-14T08:04:46;99712.75;;;30.71
15144;BMP180;7672;50.834;6.286;2023-06-14T08:07:15;99712.91;;;31.02
15144;BMP180;7672;50.834;6.286;2023-06-14T08:09:42;99712.84;;;31.35
15144;BMP180;7672;50.834;6.286;2023-06-14T08:12:09;99711.31;;;31.64
15144;BMP180;7672;50.834;6.286;2023-06-14T08:14:39;99707.75;;;31.96
15144;BMP180;7672;50.834;6.286;2023-06-14T08:17:06;99718.72;;;32.31
15144;BMP180;7672;50.834;6.286;2023-06-14T08:19:34;99716.75;;;32.64
15144;BMP180;7672;50.834;6.286;2023-06-14T08:22:01;99716.84;;;32.92
15144;BMP180;7672;50.834;6.286;2023-06-14T08:24:28;99719.84;;;33.18
15144;BMP180;7672;50.834;6.286;2023-06-14T08:26:57;99711.78;;;33.49
15144;BMP180;7672;50.834;6.286;2023-06-14T08:29:24;99721.88;;;33.82
15144;BMP180;7672;50.834;6.286;2023-06-14T08:31:51;99719.41;;;34.08
15144;BMP180;7672;50.834;6.286;2023-06-14T08:34:18;99714.75;;;34.48
15144;BMP180;7672;50.834;6.286;2023-06-14T08:36:45;99718.34;;;34.93
15144;BMP180;7672;50.834;6.286;2023-06-14T08:39:12;99720.00;;;35.38
15144;BMP180;7672;50.834;6.286;2023-06-14T08:41:40;99719.47;;;35.79
15144;BMP180;7672;50.834;6.286;2023-06-14T08:44:08;99711.03;;;36.10
15144;BMP180;7672;50.834;6.286;2023-06-14T08:46:37;99722.44;;;36.36
15144;BMP180;7672;50.834;6.286;2023-06-14T08:49:05;99715.81;;;36.57
15144;BMP180;7672;50.834;6.286;2023-06-14T08:51:35;99713.22;;;36.98
15144;BMP180;7672;50.834;6.286;2023-06-14T08:54:03;99708.59;;;37.33
15144;BMP180;7672;50.834;6.286;2023-06-14T08:56:31;99707.03;;;37.72
15144;BMP180;7672;50.834;6.286;2023-06-14T08:59:01;99709.63;;;38.12
15144;BMP180;7672;50.834;6.286;2023-06-14T09:01:34;99714.03;;;38.51
15144;BMP180;7672;50.834;6.286;2023-06-14T09:04:02;99709.00;;;38.88
15144;BMP180;7672;50.834;6.286;2023-06-14T09:06:29;99726.19;;;39.22
15144;BMP180;7672;50.834;6.286;2023-06-14T09:08:57;99717.34;;;39.37
15144;BMP180;7672;50.834;6.286;2023-06-14T09:11:24;99718.75;;;39.56
15144;BMP180;7672;50.834;6.286;2023-06-14T09:13:53;99724.38;;;39.83
15144;BMP180;7672;50.834;6.286;2023-06-14T09:16:20;99728.63;;;39.84
15144;BMP180;7672;50.834;6.286;2023-06-14T09:18:48;99717.63;;;39.72
15144;BMP180;7672;50.834;6.286;2023-06-14T09:21:16;99729.41;;;39.92
15144;BMP180;7672;50.834;6.286;2023-06-14T09:23:46;99726.69;;;40.00
15144;BMP180;7672;50.834;6.286;2023-06-14T09:26:19;99730.91;;;40.09
15144;BMP180;7672;50.834;6.286;2023-06-14T09:28:54;99724.38;;;40.20
15144;BMP180;7672;50.834;6.286;2023-06-14T09:31:22;99722.03;;;40.39
15144;BMP180;7672;50.834;6.286;2023-06-14T09:33:50;99730.03;;;40.68
15144;BMP180;7672;50.834;6.286;2023-06-14T09:36:23;99724.50;;;41.12
15144;BMP180;7672;50.834;6.286;2023-06-14T09:38:59;99723.97;;;41.38
15144;BMP180;7672;50.834;6.286;2023-06-14T09:44:10;99724.91;;;41.09
15144;BMP180;7672;50.834;6.286;2023-06-14T09:46:47;99718.28;;;41.20
15144;BMP180;7672;50.834;6.286;2023-06-14T09:49:15;99713.00;;;41.41
15144;BMP180;7672;50.834;6.286;2023-06-14T09:51:45;99712.03;;;41.63
15144;BMP180;7672;50.834;6.286;2023-06-14T09:54:16;99721.50;;;41.92
15144;BMP180;7672;50.834;6.286;2023-06-14T09:56:47;99712.28;;;42.09
15144;BMP180;7672;50.834;6.286;2023-06-14T09:59:22;99713.75;;;42.18
15144;BMP180;7672;50.834;6.286;2023-06-14T10:01:58;99713.31;;;42.42
15144;BMP180;7672;50.834;6.286;2023-06-14T10:04:30;99705.03;;;42.58
15144;BMP180;7672;50.834;6.286;2023-06-14T10:07:00;99711.81;;;42.94
15144;BMP180;7672;50.834;6.286;2023-06-14T10:09:29;99712.16;;;43.38
15144;BMP180;7672;50.834;6.286;2023-06-14T10:11:59;99708.97;;;43.68
15144;BMP180;7672;50.834;6.286;2023-06-14T10:14:27;99708.19;;;43.87
15144;BMP180;7672;50.834;6.286;2023-06-14T10:17:09;99711.47;;;43.89
15144;BMP180;7672;50.834;6.286;2023-06-14T10:19:48;99712.63;;;43.67
15144;BMP180;7672;50.834;6.286;2023-06-14T10:22:32;99710.09;;;43.27
15144;BMP180;7672;50.834;6.286;2023-06-14T10:25:02;99706.06;;;42.97
15144;BMP180;7672;50.834;6.286;2023-06-14T10:27:35;99700.53;;;42.92
15144;BMP180;7672;50.834;6.286;2023-06-14T10:30:04;99709.06;;;42.81
15144;BMP180;7672;50.834;6.286;2023-06-14T10:32:32;99705.00;;;42.85
15144;BMP180;7672;50.834;6.286;2023-06-14T10:35:08;99707.16;;;43.09
15144;BMP180;7672;50.834;6.286;2023-06-14T10:37:36;99715.19;;;43.15
15144;BMP180;7672;50.834;6.286;2023-06-14T10:40:04;99707.59;;;43.19
15144;BMP180;7672;50.834;6.286;2023-06-14T10:42:35;99696.94;;;43.12
15144;BMP180;7672;50.834;6.286;2023-06-14T10:45:03;99707.50;;;42.93
15144;BMP180;7672;50.834;6.286;2023-06-14T10:47:32;99704.41;;;42.90
15144;BMP180;7672;50.834;6.286;2023-06-14T10:52:33;99703.69;;;43.02
15144;BMP180;7672;50.834;6.286;2023-06-14T10:55:12;99711.16;;;42.86
15144;BMP180;7672;50.834;6.286;2023-06-14T10:57:52;99704.84;;;42.59
15144;BMP180;7672;50.834;6.286;2023-06-14T11:00:25;99703.84;;;42.60
15144;BMP180;7672;50.834;6.286;2023-06-14T11:05:57;99708.41;;;42.39
15144;BMP180;7672;50.834;6.286;2023-06-14T11:11:36;99700.09;;;41.38
15144;BMP180;7672;50.834;6.286;2023-06-14T11:14:04;99703.41;;;41.04
15144;BMP180;7672;50.834;6.286;2023-06-14T11:16:31;99690.53;;;40.87
15144;BMP180;7672;50.834;6.286;2023-06-14T11:19:03;99694.31;;;40.64
15144;BMP180;7672;50.834;6.286;2023-06-14T11:21:32;99698.00;;;40.26
15144;BMP180;7672;50.834;6.286;2023-06-14T11:24:00;99695.16;;;39.68
15144;BMP180;7672;50.834;6.286;2023-06-14T11:26:30;99689.78;;;39.02
15144;BMP180;7672;50.834;6.286;2023-06-14T11:28:59;99687.81;;;38.49
15144;BMP180;7672;50.834;6.286;2023-06-14T11:31:28;99694.66;;;37.96
15144;BMP180;7672;50.834;6.286;2023-06-14T11:33:59;99699.34;;;37.37
15144;BMP180;7672;50.834;6.286;2023-06-14T11:36:31;99694.81;;;36.73
15144;BMP180;7672;50.834;6.286;2023-06-14T11:39:03;99691.53;;;36.20
15144;BMP180;7672;50.834;6.286;2023-06-14T11:41:44;99694.22;;;35.68
15144;BMP180;7672;50.834;6.286;2023-06-14T11:44:12;99693.44;;;35.23
15144;BMP180;7672;50.834;6.286;2023-06-14T11:46:40;99691.00;;;34.86
15144;BMP180;7672;50.834;6.286;2023-06-14T11:49:07;99684.06;;;34.58
15144;BMP180;7672;50.834;6.286;2023-06-14T11:51:36;99697.13;;;34.31
15144;BMP180;7672;50.834;6.286;2023-06-14T11:54:05;99700.78;;;34.02
15144;BMP180;7672;50.834;6.286;2023-06-14T11:56:33;99706.84;;;33.74
15144;BMP180;7672;50.834;6.286;2023-06-14T11:59:03;99702.63;;;33.43
15144;BMP180;7672;50.834;6.286;2023-06-14T12:01:31;99693.09;;;33.14
15144;BMP180;7672;50.834;6.286;2023-06-14T12:03:59;99701.56;;;32.88
15144;BMP180;7672;50.834;6.286;2023-06-14T12:06:30;99695.66;;;32.65
15144;BMP180;7672;50.834;6.286;2023-06-14T12:09:04;99693.88;;;32.46
15144;BMP180;7672;50.834;6.286;2023-06-14T12:11:35;99697.25;;;32.27
15144;BMP180;7672;50.834;6.286;2023-06-14T12:14:08;99698.53;;;32.12
15144;BMP180;7672;50.834;6.286;2023-06-14T12:16:38;99703.81;;;32.01
15144;BMP180;7672;50.834;6.286;2023-06-14T12:19:16;99694.34;;;31.90
15144;BMP180;7672;50.834;6.286;2023-06-14T12:21:47;99693.72;;;31.77
15144;BMP180;7672;50.834;6.286;2023-06-14T12:24:16;99693.16;;;31.62
15144;BMP180;7672;50.834;6.286;2023-06-14T12:26:43;99694.84;;;31.52
15144;BMP180;7672;50.834;6.286;2023-06-14T12:29:10;99688.69;;;31.42
15144;BMP180;7672;50.834;6.286;2023-06-14T12:31:40;99692.16;;;31.32
15144;BMP180;7672;50.834;6.286;2023-06-14T12:34:08;99703.22;;;31.25
15144;BMP180;7672;50.834;6.286;2023-06-14T12:36:35;99689.22;;;31.15
15144;BMP180;7672;50.834;6.286;2023-06-14T12:39:08;99694.75;;;31.01
15144;BMP180;7672;50.834;6.286;2023-06-14T12:41:36;99683.34;;;30.91
15144;BMP180;7672;50.834;6.286;2023-06-14T12:44:09;99687.97;;;30.87
15144;BMP180;7672;50.834;6.286;2023-06-14T12:46:36;99679.88;;;30.90
15144;BMP180;7672;50.834;6.286;2023-06-14T12:49:05;99686.75;;;30.91
15144;BMP180;7672;50.834;6.286;2023-06-14T12:51:32;99689.13;;;30.94
15144;BMP180;7672;50.834;6.286;2023-06-14T12:53:59;99690.81;;;30.95
15144;BMP180;7672;50.834;6.286;2023-06-14T12:56:27;99691.03;;;30.92
15144;BMP180;7672;50.834;6.286;2023-06-14T12:58:54;99690.09;;;30.82
15144;BMP180;7672;50.834;6.286;2023-06-14T13:01:21;99681.19;;;30.74
15144;BMP180;7672;50.834;6.286;2023-06-14T13:03:48;99682.53;;;30.68
15144;BMP180;7672;50.834;6.286;2023-06-14T13:06:17;99677.78;;;30.63
15144;BMP180;7672;50.834;6.286;2023-06-14T13:08:44;99680.88;;;30.57
15144;BMP180;7672;50.834;6.286;2023-06-14T13:11:11;99667.84;;;30.57
15144;BMP180;7672;50.834;6.286;2023-06-14T13:13:38;99677.88;;;30.61
15144;BMP180;7672;50.834;6.286;2023-06-14T13:16:05;99679.44;;;30.64
15144;BMP180;7672;50.834;6.286;2023-06-14T13:18:32;99685.38;;;30.66
15144;BMP180;7672;50.834;6.286;2023-06-14T13:20:59;99680.84;;;30.67
15144;BMP180;7672;50.834;6.286;2023-06-14T13:23:28;99675.28;;;30.72
15144;BMP180;7672;50.834;6.286;2023-06-14T13:25:55;99681.94;;;30.76
15144;BMP180;7672;50.834;6.286;2023-06-14T13:28:22;99688.22;;;30.73
15144;BMP180;7672;50.834;6.286;2023-06-14T13:30:49;99684.41;;;30.66
15144;BMP180;7672;50.834;6.286;2023-06-14T13:33:16;99682.50;;;30.58
15144;BMP180;7672;50.834;6.286;2023-06-14T13:35:43;99684.41;;;30.45
15144;BMP180;7672;50.834;6.286;2023-06-14T13:38:10;99687.00;;;30.34
15144;BMP180;7672;50.834;6.286;2023-06-14T13:40:38;99681.63;;;30.24
15144;BMP180;7672;50.834;6.286;2023-06-14T13:43:06;99677.13;;;30.15
15144;BMP180;7672;50.834;6.286;2023-06-14T13:45:33;99692.16;;;30.12
15144;BMP180;7672;50.834;6.286;2023-06-14T13:48:00;99680.53;;;30.05
15144;BMP180;7672;50.834;6.286;2023-06-14T13:50:27;99681.09;;;29.98
15144;BMP180;7672;50.834;6.286;2023-06-14T13:52:54;99671.25;;;29.90
15144;BMP180;7672;50.834;6.286;2023-06-14T13:55:21;99676.72;;;29.87
15144;BMP180;7672;50.834;6.286;2023-06-14T13:57:48;99669.63;;;29.77
15144;BMP180;7672;50.834;6.286;2023-06-14T14:00:16;99666.66;;;29.70
15144;BMP180;7672;50.834;6.286;2023-06-14T14:02:45;99673.97;;;29.65
15144;BMP180;7672;50.834;6.286;2023-06-14T14:05:13;99664.84;;;29.60
15144;BMP180;7672;50.834;6.286;2023-06-14T14:07:40;99666.72;;;29.58
15144;BMP180;7672;50.834;6.286;2023-06-14T14:10:07;99655.72;;;29.54
15144;BMP180;7672;50.834;6.286;2023-06-14T14:12:35;99667.06;;;29.53
15144;BMP180;7672;50.834;6.286;2023-06-14T14:15:02;99668.50;;;29.57
15144;BMP180;7672;50.834;6.286;2023-06-14T14:17:30;99663.56;;;29.65
15144;BMP180;7672;50.834;6.286;2023-06-14T14:19:57;99667.25;;;29.74
15144;BMP180;7672;50.834;6.286;2023-06-14T14:22:24;99660.06;;;29.77
15144;BMP180;7672;50.834;6.286;2023-06-14T14:24:51;99657.66;;;29.74
15144;BMP180;7672;50.834;6.286;2023-06-14T14:27:18;99658.50;;;29.75
15144;BMP180;7672;50.834;6.286;2023-06-14T14:29:46;99655.06;;;29.74
15144;BMP180;7672;50.834;6.286;2023-06-14T14:32:13;99664.34;;;29.78
15144;BMP180;7672;50.834;6.286;2023-06-14T14:34:41;99663.28;;;29.81
15144;BMP180;7672;50.834;6.286;2023-06-14T14:37:08;99656.88;;;29.85
15144;BMP180;7672;50.834;6.286;2023-06-14T14:39:37;99659.78;;;29.93
15144;BMP180;7672;50.834;6.286;2023-06-14T14:42:04;99650.94;;;30.06
15144;BMP180;7672;50.834;6.286;2023-06-14T14:44:34;99658.66;;;30.29
15144;BMP180;7672;50.834;6.286;2023-06-14T14:47:01;99654.41;;;30.50